Time;durP1;ratioP1;P1;durP2;ratioP2;P2;SDS_P1;SDS_P2;PMS_P1;PMS_P2;Temp;Humidity;BMP_temperature;BMP_pressure;BME280_temperature;BME280_humidity;BME280_pressure;Samples;Min_cycle;Max_cycle;Signal;HPM_P1;HPM_P2
2021/11/20 00:01:36;;;;;;;15.47;7.60;;;12.10;99.90;;;12.30;72.91;101866.34;5026760;28;20475;-84
2021/11/20 00:04:06;;;;;;;13.03;7.30;;;12.20;99.90;;;12.32;72.82;101861.59;5025598;28;20409;-85
2021/11/20 00:06:40;;;;;;;9.97;6.57;;;12.20;99.90;;;12.28;73.07;101863.00;5024060;28;20898;-82
2021/11/20 00:09:14;;;;;;;12.70;6.90;;;12.20;99.90;;;12.28;73.08;101858.41;5025272;28;20417;-82
2021/11/20 00:11:46;;;;;;;9.07;6.57;;;12.20;99.90;;;12.25;73.30;101853.34;5023815;28;20447;-84
2021/11/20 00:14:16;;;;;;;11.80;8.00;;;12.10;99.90;;;12.20;73.27;101853.06;5023369;28;20461;-83
2021/11/20 00:16:51;;;;;;;16.37;8.00;;;12.20;99.90;;;12.20;73.20;101847.66;5026482;28;20448;-81
2021/11/20 00:19:22;;;;;;;8.80;7.17;;;12.10;99.90;;;12.16;73.48;101860.75;5036449;28;20416;-82
2021/11/20 00:21:58;;;;;;;13.23;7.50;;;12.10;99.90;;;12.20;73.42;101861.22;5035425;28;20652;-81
2021/11/20 00:24:32;;;;;;;14.13;7.37;;;12.10;99.90;;;12.22;73.51;101850.19;5037422;28;20444;-80
2021/11/20 00:27:05;;;;;;;8.47;7.03;;;12.10;99.90;;;12.17;73.47;101853.47;5039226;28;20417;-80
2021/11/20 00:29:45;;;;;;;12.37;8.27;;;12.10;99.90;;;12.16;73.68;101860.75;5038339;28;20455;-81
2021/11/20 00:32:21;;;;;;;8.70;6.33;;;12.10;99.90;;;12.23;73.43;101847.28;5038539;28;20472;-81
2021/11/20 00:34:50;;;;;;;11.70;7.93;;;12.10;99.90;;;12.14;73.60;101845.72;5037972;28;20469;-80
2021/11/20 00:37:19;;;;;;;8.97;7.27;;;12.10;99.90;;;12.14;73.76;101848.44;5034901;28;20504;-82
2021/11/20 00:39:48;;;;;;;10.20;6.77;;;12.10;99.90;;;12.20;73.62;101844.94;5030969;28;20431;-82
2021/11/20 00:42:17;;;;;;;16.90;7.37;;;12.10;99.90;;;12.18;73.61;101841.59;5032417;28;20448;-83
2021/11/20 00:44:47;;;;;;;8.90;7.90;;;12.00;99.90;;;12.13;73.81;101844.88;5022262;28;20449;-82
2021/11/20 00:47:19;;;;;;;14.07;6.87;;;12.10;99.90;;;12.13;73.81;101846.75;5021485;28;20417;-81
2021/11/20 00:49:50;;;;;;;10.60;7.10;;;12.00;99.90;;;12.08;73.93;101841.03;5020111;28;20520;-82
2021/11/20 00:52:20;;;;;;;15.50;8.67;;;12.00;99.90;;;12.14;74.05;101851.13;5020658;28;20448;-84
2021/11/20 00:54:49;;;;;;;16.47;9.00;;;12.00;99.90;;;12.08;74.00;101858.16;5020718;28;20473;-82
2021/11/20 00:57:18;;;;;;;16.73;7.83;;;12.00;99.90;;;12.10;73.99;101852.56;5020830;28;20502;-82
2021/11/20 00:59:48;;;;;;;13.83;8.57;;;12.00;99.90;;;12.11;74.04;101855.06;5030921;28;20445;-81
2021/11/20 01:02:21;;;;;;;11.67;7.70;;;12.00;99.90;;;12.13;73.97;101850.28;5030121;28;20465;-81
2021/11/20 01:04:51;;;;;;;10.47;8.00;;;12.00;99.90;;;12.11;74.07;101846.91;5028763;28;20491;-82
2021/11/20 01:07:20;;;;;;;10.20;6.43;;;12.00;99.90;;;12.08;74.06;101850.03;5020283;28;20500;-82
2021/11/20 01:09:49;;;;;;;21.83;8.30;;;12.00;99.90;;;12.09;74.10;101846.28;5019053;28;20456;-83
2021/11/20 01:12:22;;;;;;;11.33;6.73;;;12.00;99.90;;;12.09;74.15;101859.00;5042558;23;20546;-82
2021/11/20 01:14:54;;;;;;;8.83;7.50;;;12.00;99.90;;;12.12;73.96;101854.03;5006740;28;20467;-79
2021/11/20 01:17:28;;;;;;;10.13;7.10;;;12.00;99.90;;;12.07;74.25;101859.19;5018948;28;20535;-80
2021/11/20 01:19:59;;;;;;;8.97;7.73;;;12.00;99.90;;;12.05;74.07;101857.69;5013440;28;20500;-80
2021/11/20 01:22:57;;;;;;;7.23;6.50;;;11.90;99.90;;;12.05;74.21;101855.81;5008866;28;20496;-79
2021/11/20 01:25:45;;;;;;;15.23;7.67;;;12.00;99.90;;;12.05;74.48;101853.09;5014974;28;20512;-82
2021/11/20 01:28:41;;;;;;;13.17;6.63;;;11.90;99.90;;;12.13;74.22;101852.16;5009633;28;20500;-80
2021/11/20 01:31:14;;;;;;;16.50;7.90;;;11.90;99.90;;;12.03;74.44;101859.75;5018031;28;20496;-81
2021/11/20 01:33:47;;;;;;;15.37;7.20;;;11.90;99.90;;;12.03;74.25;101860.59;5014440;28;20477;-81
2021/11/20 01:36:25;;;;;;;11.07;8.00;;;12.00;99.90;;;12.02;74.33;101858.06;5018192;28;20442;-79
2021/11/20 01:38:59;;;;;;;10.70;7.10;;;11.90;99.90;;;12.06;74.25;101854.78;5018537;28;20432;-81
2021/11/20 01:41:59;;;;;;;13.50;7.10;;;11.90;99.90;;;12.04;74.34;101845.16;5017517;28;20431;-82
2021/11/20 01:44:54;;;;;;;11.30;6.97;;;11.90;99.90;;;12.03;74.42;101851.63;5019666;28;20408;-81
2021/11/20 01:47:40;;;;;;;12.80;7.10;;;11.90;99.90;;;11.97;74.57;101846.94;5018094;28;20536;-79
2021/11/20 01:50:16;;;;;;;9.00;6.40;;;11.90;99.90;;;11.99;74.33;101840.31;5017206;28;20429;-80
2021/11/20 01:52:54;;;;;;;9.83;6.60;;;11.90;99.90;;;12.01;74.53;101856.38;5018220;28;20475;-79
2021/11/20 01:55:37;;;;;;;9.30;5.90;;;11.90;99.90;;;11.97;74.61;101849.63;5018285;28;20552;-80
2021/11/20 01:58:26;;;;;;;9.97;7.10;;;11.90;99.90;;;11.99;74.46;101863.88;5022640;28;20817;-78
2021/11/20 02:01:06;;;;;;;14.30;6.40;;;11.90;99.90;;;11.97;74.60;101855.06;5018576;28;20597;-80
2021/11/20 02:03:43;;;;;;;13.00;6.20;;;11.90;99.90;;;11.98;74.56;101859.47;5019103;28;20445;-80
2021/11/20 02:06:30;;;;;;;5.90;4.93;;;11.90;99.90;;;11.98;74.59;101856.75;5020705;28;20445;-79
2021/11/20 02:09:11;;;;;;;8.57;5.80;;;11.90;99.90;;;11.99;74.63;101858.44;5018912;28;20509;-82
2021/11/20 02:12:04;;;;;;;10.43;5.80;;;11.80;99.90;;;12.01;74.65;101850.94;5019578;28;20468;-83
2021/11/20 02:14:35;;;;;;;10.90;5.90;;;11.80;99.90;;;12.03;74.33;101859.75;5017967;28;20461;-79
2021/11/20 02:17:11;;;;;;;7.70;5.50;;;11.90;99.90;;;11.90;74.73;101854.16;5019819;28;20437;-81
2021/11/20 02:19:49;;;;;;;5.30;4.80;;;11.90;99.90;;;11.92;74.80;101852.06;5018678;28;20418;-79
2021/11/20 02:22:34;;;;;;;8.83;5.63;;;11.80;99.90;;;12.02;74.30;101858.06;5016454;28;20468;-82
2021/11/20 02:25:04;;;;;;;5.97;5.33;;;11.90;99.90;;;11.96;74.76;101846.09;5017243;28;20429;-81
2021/11/20 02:28:09;;;;;;;9.00;4.67;;;11.90;99.90;;;11.92;74.74;101846.66;4994759;28;20517;-81
2021/11/20 02:30:43;;;;;;;8.00;4.63;;;11.80;99.90;;;11.93;74.60;101860.03;5014369;28;20433;-81
2021/11/20 02:33:15;;;;;;;5.70;4.77;;;11.80;99.90;;;11.87;74.89;101854.50;5019517;28;20484;-80
2021/11/20 02:35:54;;;;;;;8.60;4.63;;;11.80;99.90;;;11.93;74.71;101848.34;5021392;28;21058;-80
2021/11/20 02:38:27;;;;;;;5.67;4.37;;;11.80;99.90;;;11.94;74.59;101841.88;5015929;28;20448;-81
2021/11/20 02:40:59;;;;;;;13.57;5.50;;;11.70;99.90;;;11.93;74.56;101832.91;5014761;28;20470;-81
2021/11/20 02:43:36;;;;;;;6.30;4.03;;;11.80;99.90;;;11.99;74.42;101845.72;5015391;28;20457;-81
2021/11/20 02:46:23;;;;;;;7.80;4.77;;;11.80;99.90;;;11.97;74.58;101827.94;5019202;28;20418;-81
2021/11/20 02:48:52;;;;;;;6.40;5.40;;;11.80;99.90;;;11.90;74.73;101840.59;5021082;28;20943;-79
2021/11/20 02:51:27;;;;;;;5.50;4.37;;;11.80;99.90;;;11.98;74.59;101840.47;5021755;28;21009;-82
2021/11/20 02:54:00;;;;;;;5.73;5.00;;;11.80;99.90;;;11.94;74.66;101836.47;5018323;28;20893;-81
2021/11/20 02:56:35;;;;;;;12.87;4.43;;;11.80;99.90;;;11.81;75.28;101839.00;5018330;28;20448;-81
2021/11/20 02:59:07;;;;;;;8.40;3.77;;;11.80;99.90;;;11.76;75.65;101845.81;5018936;28;20441;-81
2021/11/20 03:01:49;;;;;;;8.17;6.03;;;11.70;99.90;;;11.79;75.73;101838.34;5019300;28;20487;-80
2021/11/20 03:04:22;;;;;;;5.67;3.97;;;11.70;99.90;;;11.75;76.02;101835.16;5022052;28;20485;-81
2021/11/20 03:06:54;;;;;;;12.37;5.37;;;11.60;99.90;;;11.76;76.32;101837.66;5018179;28;20962;-81
2021/11/20 03:09:25;;;;;;;5.30;4.80;;;11.60;99.90;;;11.81;76.13;101834.44;5017706;28;20433;-81
2021/11/20 03:11:59;;;;;;;8.77;5.20;;;11.70;99.90;;;11.75;76.09;101833.31;5017553;28;20475;-81
2021/11/20 03:14:31;;;;;;;6.57;5.17;;;11.60;99.90;;;11.68;76.62;101831.47;5017722;28;20443;-81
2021/11/20 03:17:05;;;;;;;4.83;4.00;;;11.60;99.90;;;11.73;76.78;101832.63;5016988;28;20487;-81
2021/11/20 03:19:37;;;;;;;8.90;4.73;;;11.60;99.90;;;11.59;77.06;101830.72;5018315;28;20942;-82
2021/11/20 03:22:11;;;;;;;5.07;3.90;;;11.50;99.90;;;11.56;77.60;101825.69;5018556;28;20455;-82
2021/11/20 03:24:40;;;;;;;5.60;4.57;;;11.50;99.90;;;11.57;77.58;101826.53;5017498;28;20812;-81
2021/11/20 03:27:09;;;;;;;5.33;3.90;;;11.50;99.90;;;11.54;77.78;101825.03;5016762;28;20448;-82
2021/11/20 03:29:38;;;;;;;8.60;6.20;;;11.40;99.90;;;11.59;77.54;101825.31;5017038;28;20507;-82
2021/11/20 03:32:12;;;;;;;6.37;4.60;;;11.50;99.90;;;11.54;77.80;101833.16;5016852;28;20962;-82
2021/11/20 03:34:43;;;;;;;8.53;4.63;;;11.50;99.90;;;11.56;78.00;101835.69;5018966;28;20457;-80
2021/11/20 03:37:17;;;;;;;6.07;4.40;;;11.50;99.90;;;11.50;78.22;101825.59;5022508;28;20436;-82
2021/11/20 03:39:46;;;;;;;9.00;6.40;;;11.40;99.90;;;11.44;78.39;101816.31;5039155;28;20489;-83
2021/11/20 03:42:15;;;;;;;9.27;6.27;;;11.40;99.90;;;11.36;78.72;101813.69;5038672;28;20448;-81
2021/11/20 03:44:46;;;;;;;9.03;6.03;;;11.30;99.90;;;11.33;78.94;101804.06;5039306;28;20434;-82
2021/11/20 03:47:17;;;;;;;7.30;5.40;;;11.30;99.90;;;11.31;79.20;101808.00;5040079;28;20577;-83
2021/11/20 03:49:47;;;;;;;6.70;4.73;;;11.20;99.90;;;11.31;79.26;101814.25;5039143;28;20433;-82
2021/11/20 03:52:18;;;;;;;7.10;5.30;;;11.20;99.90;;;11.35;78.96;101806.59;5039205;28;20444;-82
2021/11/20 03:54:48;;;;;;;11.20;5.83;;;11.20;99.90;;;11.30;79.24;101809.84;5039111;28;20463;-82
2021/11/20 03:57:20;;;;;;;5.00;4.17;;;11.20;99.90;;;11.36;78.70;101807.44;5038954;28;20417;-81
2021/11/20 03:59:49;;;;;;;5.77;5.10;;;11.20;99.90;;;11.30;78.94;101804.44;5019869;28;20488;-82
2021/11/20 04:02:20;;;;;;;5.13;4.40;;;11.20;99.90;;;11.35;78.73;101801.19;5017253;28;20439;-81
2021/11/20 04:04:49;;;;;;;5.73;5.13;;;11.20;99.90;;;11.32;78.83;101796.13;5018865;28;20440;-80
2021/11/20 04:07:18;;;;;;;5.87;5.27;;;11.20;99.90;;;11.40;78.68;101793.34;5020525;28;20404;-81
2021/11/20 04:09:52;;;;;;;6.60;5.27;;;11.20;99.90;;;11.40;78.56;101792.47;5020955;28;20454;-80
2021/11/20 04:12:21;;;;;;;7.57;4.63;;;11.30;99.90;;;11.33;78.45;101787.81;5021747;28;20464;-82
2021/11/20 04:14:49;;;;;;;7.03;6.33;;;11.30;99.90;;;11.34;78.54;101804.91;5023664;28;20437;-79
2021/11/20 04:17:20;;;;;;;9.10;4.33;;;11.30;99.90;;;11.31;78.79;101794.44;5021754;28;20445;-80
2021/11/20 04:19:50;;;;;;;6.07;4.57;;;11.20;99.90;;;11.32;78.66;101798.84;5016611;28;20444;-80
2021/11/20 04:22:19;;;;;;;7.87;5.30;;;11.20;99.90;;;11.37;78.55;101798.28;5016533;28;20431;-79
2021/11/20 04:24:48;;;;;;;6.60;5.10;;;11.20;99.90;;;11.37;78.57;101803.72;5015701;28;20421;-82
2021/11/20 04:27:23;;;;;;;6.80;5.40;;;11.20;99.90;;;11.37;78.39;101804.56;5016366;28;20455;-80
2021/11/20 04:30:12;;;;;;;6.67;4.67;;;11.30;99.90;;;11.34;78.75;101799.47;5018724;28;20440;-81
2021/11/20 04:32:44;;;;;;;8.20;4.70;;;11.20;99.90;;;11.44;78.23;101800.06;5018718;28;20471;-81
2021/11/20 04:35:17;;;;;;;5.77;4.27;;;11.30;99.90;;;11.39;78.25;101797.06;5021216;28;20467;-81
2021/11/20 04:37:47;;;;;;;5.20;4.70;;;11.30;99.90;;;11.44;78.12;101800.06;5020763;28;20421;-80
2021/11/20 04:40:18;;;;;;;5.60;4.43;;;11.30;99.90;;;11.37;78.32;101804.56;5020340;28;20447;-80
2021/11/20 04:42:48;;;;;;;7.57;4.77;;;11.30;99.90;;;11.34;78.65;101800.31;5020647;28;20496;-80
2021/11/20 04:45:20;;;;;;;9.90;4.97;;;11.30;99.90;;;11.33;78.58;101801.34;5018850;28;20936;-80
2021/11/20 04:47:51;;;;;;;6.43;5.70;;;11.30;99.90;;;11.37;78.34;101803.72;5019945;28;20445;-80
2021/11/20 04:50:26;;;;;;;6.37;4.80;;;11.30;99.90;;;11.34;78.42;101802.19;5024826;28;20417;-80
2021/11/20 04:52:55;;;;;;;6.67;4.87;;;11.20;99.90;;;11.36;78.35;101796.59;5032961;28;20468;-82
2021/11/20 04:55:25;;;;;;;6.57;5.20;;;11.20;99.90;;;11.26;78.43;101795.00;5035444;28;20902;-82
2021/11/20 04:57:56;;;;;;;5.57;4.83;;;11.20;99.90;;;11.33;78.30;101797.78;5037128;28;20614;-82
2021/11/20 05:00:30;;;;;;;5.77;4.00;;;11.20;99.90;;;11.33;78.43;101800.50;5036849;28;20472;-82
2021/11/20 05:03:05;;;;;;;4.90;4.00;;;11.20;99.90;;;11.35;78.22;101795.75;5027688;28;20460;-82
2021/11/20 05:05:44;;;;;;;4.97;4.50;;;11.20;99.90;;;11.36;78.32;101792.03;5032993;28;20425;-81
2021/11/20 05:08:18;;;;;;;5.50;5.00;;;11.20;99.90;;;11.35;78.01;101803.88;5035369;28;20425;-83
2021/11/20 05:10:51;;;;;;;7.47;4.77;;;11.20;99.90;;;11.38;77.97;101798.06;5035730;28;20429;-81
2021/11/20 05:13:22;;;;;;;7.33;4.53;;;11.20;99.90;;;11.40;78.02;101809.59;5034908;28;20470;-81
2021/11/20 05:15:56;;;;;;;5.93;5.13;;;11.20;99.90;;;11.33;77.97;101814.91;5034919;28;20464;-82
2021/11/20 05:18:30;;;;;;;5.03;4.30;;;11.30;99.90;;;11.45;77.92;101804.47;5034036;28;20524;-82
2021/11/20 05:21:07;;;;;;;4.23;3.20;;;11.30;99.90;;;11.46;77.54;101795.31;5037465;28;20413;-82
2021/11/20 05:23:38;;;;;;;9.23;4.17;;;11.30;99.90;;;11.38;77.99;101800.78;5016779;28;20457;-81
2021/11/20 05:26:11;;;;;;;6.50;4.37;;;11.20;99.90;;;11.54;77.12;101800.63;5014838;28;20437;-80
2021/11/20 05:28:52;;;;;;;4.20;3.80;;;11.40;99.90;;;11.48;77.18;101801.34;5014797;28;20432;-81
2021/11/20 05:31:21;;;;;;;4.27;3.53;;;11.30;99.90;;;11.44;77.28;101805.47;5015224;28;20437;-81
2021/11/20 05:33:52;;;;;;;4.67;3.93;;;11.30;99.90;;;11.44;77.28;101800.06;5014188;28;20457;-81
2021/11/20 05:36:26;;;;;;;4.40;3.07;;;11.40;99.90;;;11.49;77.24;101800.34;5015026;28;20523;-82
2021/11/20 05:38:55;;;;;;;6.87;3.93;;;11.40;99.90;;;11.52;77.11;101799.16;5015455;28;20460;-81
2021/11/20 05:41:25;;;;;;;5.03;4.40;;;11.40;99.90;;;11.48;77.22;101801.34;5014255;28;20429;-80
2021/11/20 05:43:54;;;;;;;5.50;4.40;;;11.40;99.90;;;11.47;77.17;101788.88;5015979;28;20499;-81
2021/11/20 05:46:40;;;;;;;5.50;3.67;;;11.40;99.90;;;11.50;77.00;101799.31;5031340;28;20540;-82
2021/11/20 05:49:11;;;;;;;5.70;4.37;;;11.40;99.90;;;11.36;77.33;101800.16;5014634;28;20460;-80
2021/11/20 05:51:41;;;;;;;6.67;4.43;;;11.30;99.90;;;11.40;77.43;101790.63;5013947;28;20544;-80
2021/11/20 05:54:13;;;;;;;4.70;4.30;;;11.30;99.90;;;11.41;77.48;101791.47;5014727;28;20508;-82
2021/11/20 05:56:42;;;;;;;4.83;3.80;;;11.30;99.90;;;11.47;77.09;101794.28;5015587;28;20535;-82
2021/11/20 05:59:29;;;;;;;5.50;3.50;;;11.30;99.90;;;11.53;77.06;101798.09;5017148;28;20468;-83
2021/11/20 06:02:01;;;;;;;6.67;4.00;;;11.40;99.90;;;11.46;76.95;101798.00;5034007;28;20449;-80
2021/11/20 06:04:39;;;;;;;5.93;4.50;;;11.40;99.90;;;11.42;77.12;101791.28;5050520;28;20440;-82
2021/11/20 06:07:11;;;;;;;7.10;3.40;;;11.30;99.90;;;11.54;76.50;101784.34;5022320;28;20437;-81
2021/11/20 06:09:44;;;;;;;4.20;3.30;;;11.40;99.90;;;11.49;76.84;101792.22;5015664;28;20452;-81
2021/11/20 06:12:21;;;;;;;4.53;3.27;;;11.40;99.90;;;11.51;76.21;101795.59;5030975;28;21037;-81
2021/11/20 06:14:49;;;;;;;4.90;2.77;;;11.40;99.90;;;11.45;76.56;101796.31;5015699;28;20461;-82
2021/11/20 06:17:19;;;;;;;3.83;3.10;;;11.30;99.90;;;11.50;76.52;101785.75;5033240;28;20464;-81
2021/11/20 06:19:51;;;;;;;3.40;2.73;;;11.40;99.90;;;11.51;76.54;101801.00;5017200;28;20444;-80
2021/11/20 06:22:22;;;;;;;4.97;3.30;;;11.40;99.90;;;11.41;76.93;101794.19;5032531;28;20552;-81
2021/11/20 06:24:54;;;;;;;8.47;3.20;;;11.40;99.90;;;11.52;76.61;101802.66;5042201;28;20429;-81
2021/11/20 06:27:24;;;;;;;5.97;3.20;;;11.40;99.90;;;11.49;76.75;101792.22;5029234;28;20471;-82
2021/11/20 06:30:00;;;;;;;5.97;3.17;;;11.40;99.90;;;11.54;76.26;101792.50;5028475;28;20429;-81
2021/11/20 06:32:30;;;;;;;4.10;3.20;;;11.40;99.90;;;11.54;76.42;101806.03;5029083;28;20484;-80
2021/11/20 06:35:24;;;;;;;3.13;2.87;;;11.40;99.90;;;11.52;76.61;101797.25;5019039;28;20516;-82
2021/11/20 06:38:06;;;;;;;4.97;3.23;;;11.40;99.90;;;11.57;76.21;101802.13;5018592;28;21037;-81
2021/11/20 06:40:40;;;;;;;5.07;3.87;;;11.40;99.90;;;11.58;76.55;101803.78;5019706;28;20413;-82
2021/11/20 06:43:15;;;;;;;6.97;2.90;;;11.40;99.90;;;11.39;77.66;101816.03;5035088;28;20474;-81
2021/11/20 06:45:48;;;;;;;3.60;3.30;;;11.30;99.90;;;11.38;77.91;101814.34;5034797;28;20870;-83
2021/11/20 06:48:18;;;;;;;6.17;4.10;;;11.30;99.90;;;11.33;78.31;101814.06;5018526;28;20413;-84
2021/11/20 06:51:01;;;;;;;6.10;3.60;;;11.20;99.90;;;11.37;78.43;101815.41;5018494;28;20943;-82
2021/11/20 06:53:44;;;;;;;5.20;4.30;;;11.30;99.90;;;11.30;78.50;101812.56;5019757;28;20440;-83
2021/11/20 06:56:52;;;;;;;3.50;3.20;;;11.20;99.90;;;11.21;79.15;101816.38;5014556;28;20578;-81
2021/11/20 07:02:46;;;;;;;4.87;3.70;;;11.10;99.90;;;11.29;79.28;101823.59;5039589;28;20448;-81
2021/11/20 07:05:15;;;;;;;6.80;3.80;;;11.20;99.90;;;11.16;79.31;101818.81;5056489;28;20440;-81
2021/11/20 07:07:46;;;;;;;9.00;3.70;;;11.10;99.90;;;11.21;79.41;101816.38;5056131;28;20533;-81
2021/11/20 07:10:20;;;;;;;4.17;3.77;;;11.10;99.90;;;11.07;79.89;101824.47;5039637;28;20445;-81
2021/11/20 07:12:50;;;;;;;5.97;4.40;;;11.00;99.90;;;11.18;79.84;101827.56;5050599;22;20489;-71
2021/11/20 07:15:20;;;;;;;7.00;5.20;;;11.10;99.90;;;11.16;79.73;101826.09;5015270;28;20433;-73
2021/11/20 07:17:51;;;;;;;7.10;5.17;;;11.00;99.90;;;11.19;79.79;101831.97;5015456;28;21039;-74
2021/11/20 07:20:50;;;;;;;6.60;5.13;;;11.00;99.90;;;11.17;79.97;101830.50;5015849;28;20480;-72
2021/11/20 07:23:50;;;;;;;5.87;5.27;;;11.00;99.90;;;11.10;80.20;101832.22;5014910;28;20583;-72
2021/11/20 07:26:19;;;;;;;7.83;5.83;;;11.00;99.90;;;11.16;80.35;101823.38;5014308;28;20448;-71
2021/11/20 07:28:48;;;;;;;9.37;5.20;;;11.00;99.90;;;11.08;80.30;101837.84;5014252;28;20415;-72
2021/11/20 07:31:53;;;;;;;7.00;6.23;;;11.00;99.90;;;11.19;80.32;101829.25;5014363;28;20502;-72
2021/11/20 07:34:22;;;;;;;8.63;6.73;;;11.10;99.90;;;11.14;80.38;101830.84;5013922;28;20807;-72
2021/11/20 07:36:51;;;;;;;12.63;6.57;;;11.00;99.90;;;11.25;80.43;101828.53;5014328;28;20843;-72
2021/11/20 07:39:22;;;;;;;8.13;5.97;;;11.00;99.90;;;11.25;80.23;101822.28;5015758;28;20484;-73
2021/11/20 07:41:51;;;;;;;11.83;7.37;;;11.10;99.90;;;11.23;80.00;101808.09;5014033;28;20433;-72
2021/11/20 07:44:23;;;;;;;7.37;6.07;;;11.10;99.90;;;11.16;80.05;101810.69;5014666;28;21014;-74
2021/11/20 07:46:55;;;;;;;9.97;5.90;;;11.00;99.90;;;11.11;80.45;101809.53;5014636;28;20426;-72
2021/11/20 07:49:32;;;;;;;11.20;7.07;;;11.00;99.90;;;11.13;80.46;101807.50;5016178;28;20864;-72
2021/11/20 07:52:02;;;;;;;11.70;6.70;;;11.00;99.90;;;11.13;80.65;101796.66;5006729;28;20437;-72
2021/11/20 07:54:34;;;;;;;8.07;6.50;;;11.00;99.90;;;11.18;80.49;101802.38;5022221;28;20461;-73
2021/11/20 07:57:30;;;;;;;9.27;6.50;;;11.00;99.90;;;11.20;80.35;101801.16;5018454;28;20475;-71
2021/11/20 08:00:07;;;;;;;9.43;6.43;;;11.10;99.90;;;11.14;80.60;101793.75;5014349;28;20541;-72
2021/11/20 08:02:45;;;;;;;15.37;7.47;;;11.00;99.90;;;11.17;80.73;101792.56;5015482;28;20934;-73
2021/11/20 08:05:35;;;;;;;11.87;7.80;;;11.10;99.90;;;11.13;81.12;101783.13;5015258;28;20449;-72
2021/11/20 08:08:38;;;;;;;8.40;7.50;;;11.00;99.90;;;11.14;81.01;101784.78;5014582;28;20440;-72
2021/11/20 08:11:14;;;;;;;10.00;6.80;;;11.00;99.90;;;11.22;80.70;101784.72;5014803;28;20421;-74
2021/11/20 08:13:45;;;;;;;8.70;7.00;;;11.00;99.90;;;11.25;80.36;101784.34;5014291;28;20469;-73
2021/11/20 08:16:45;;;;;;;14.00;7.53;;;11.00;99.90;;;11.19;80.38;101779.66;5015474;28;20980;-71
2021/11/20 08:19:35;;;;;;;10.60;7.03;;;11.00;99.90;;;11.34;79.86;101775.94;5013840;28;20535;-72
2021/11/20 08:22:10;;;;;;;14.10;7.63;;;11.10;99.90;;;11.29;79.89;101769.38;5015152;28;20510;-72
2021/11/20 08:24:40;;;;;;;16.53;9.63;;;11.10;99.90;;;11.13;80.23;101769.56;5013761;28;20457;-73
2021/11/20 08:27:14;;;;;;;13.23;9.27;;;11.00;99.90;;;11.32;79.72;101766.31;5013720;28;20441;-74
2021/11/20 08:29:56;;;;;;;13.10;8.10;;;11.10;99.90;;;11.41;79.35;101757.06;5014000;28;20951;-71
2021/11/20 08:32:27;;;;;;;12.77;8.50;;;11.20;99.90;;;11.40;79.09;101754.53;5014460;28;20757;-72
2021/11/20 08:35:18;;;;;;;12.33;8.47;;;11.20;99.90;;;11.46;78.61;101751.09;5013532;28;20449;-72
2021/11/20 08:38:09;;;;;;;10.17;8.73;;;11.20;99.90;;;11.55;78.22;101748.09;5013820;28;20475;-73
2021/11/20 08:41:00;;;;;;;13.50;8.87;;;11.30;99.90;;;11.86;77.32;101752.50;5013844;28;20449;-72
2021/11/20 08:43:32;;;;;;;12.10;9.67;;;11.50;99.90;;;11.90;76.68;101740.22;5014651;28;20477;-71
2021/11/20 08:46:09;;;;;;;10.07;8.90;;;11.70;99.90;;;11.93;76.77;101745.25;5012471;28;20499;-73
2021/11/20 08:48:39;;;;;;;14.03;9.70;;;11.70;99.90;;;11.91;76.03;101736.50;5016166;28;20442;-75
2021/11/20 08:51:13;;;;;;;15.30;9.73;;;11.80;99.90;;;12.03;75.77;101737.66;5020484;28;20491;-73
2021/11/20 08:53:46;;;;;;;9.23;7.77;;;11.80;99.90;;;12.10;75.69;101733.16;5019455;28;20527;-73
2021/11/20 08:56:15;;;;;;;11.00;7.97;;;11.90;99.90;;;12.25;74.88;101733.94;5021748;28;20463;-75
2021/11/20 08:59:01;;;;;;;14.90;7.90;;;12.00;99.90;;;12.18;75.21;101733.88;5015664;28;20555;-71
2021/11/20 09:01:57;;;;;;;12.33;8.17;;;12.00;99.90;;;12.35;74.91;101737.16;5004305;28;20429;-72
2021/11/20 09:04:45;;;;;;;11.63;7.63;;;12.10;99.90;;;12.34;74.74;101732.81;5014262;28;20952;-71
2021/11/20 09:07:22;;;;;;;11.30;8.53;;;12.10;99.90;;;12.26;74.49;101730.19;5013300;28;20425;-72
2021/11/20 09:10:06;;;;;;;10.10;7.50;;;12.10;99.90;;;12.13;74.59;101725.47;5013720;28;20456;-72
2021/11/20 09:12:44;;;;;;;11.23;6.77;;;12.00;99.90;;;12.21;74.11;101721.78;5013792;28;20558;-74
2021/11/20 09:15:20;;;;;;;9.53;7.70;;;12.10;99.90;;;12.28;74.25;101733.56;5018137;28;20450;-73
2021/11/20 09:17:52;;;;;;;9.27;7.40;;;12.10;99.90;;;12.10;74.43;101725.03;5022849;28;20936;-73
2021/11/20 09:20:32;;;;;;;10.37;8.37;;;12.00;99.90;;;11.97;74.83;101724.84;5017585;28;20790;-71
2021/11/20 09:23:05;;;;;;;14.20;8.00;;;11.90;99.90;;;11.92;74.77;101727.31;5015983;28;20473;-72
2021/11/20 09:25:59;;;;;;;9.93;7.37;;;11.80;99.90;;;11.96;74.99;101724.00;5014036;28;20520;-73
2021/11/20 09:28:49;;;;;;;9.17;7.50;;;11.80;99.90;;;11.94;74.35;101717.13;5014002;28;20439;-73
2021/11/20 09:31:20;;;;;;;11.13;8.70;;;11.80;99.90;;;11.83;75.08;101723.03;5018678;28;20433;-72
2021/11/20 09:33:50;;;;;;;10.87;7.83;;;11.70;99.90;;;11.93;74.49;101723.56;5020200;28;20457;-72
2021/11/20 09:36:20;;;;;;;12.10;8.73;;;11.80;99.90;;;11.89;74.59;101716.84;5017341;28;20437;-72
2021/11/20 09:39:22;;;;;;;8.50;6.50;;;11.80;99.90;;;11.91;74.45;101710.19;5013057;28;20472;-71
2021/11/20 09:42:24;;;;;;;12.23;7.27;;;11.70;99.90;;;11.92;74.73;101711.88;5014826;28;20469;-73
2021/11/20 09:45:00;;;;;;;13.10;7.10;;;11.80;99.90;;;11.98;74.12;101726.53;5013293;28;20435;-72
2021/11/20 09:47:37;;;;;;;13.27;7.00;;;11.80;99.90;;;11.99;74.25;101715.50;5012940;28;20941;-73
2021/11/20 09:50:16;;;;;;;9.77;6.07;;;11.80;99.90;;;12.09;74.20;101712.50;5013869;28;20523;-71
2021/11/20 09:52:49;;;;;;;9.50;6.30;;;11.90;99.90;;;12.01;74.10;101715.31;5012359;28;20491;-73
2021/11/20 09:55:23;;;;;;;13.37;6.90;;;11.80;99.90;;;12.01;73.78;101715.31;5012300;28;20520;-72
2021/11/20 09:57:58;;;;;;;14.10;6.50;;;11.80;99.90;;;12.01;73.29;101716.16;5013419;28;20475;-71
2021/11/20 10:01:24;;;;;;;11.33;7.07;;;11.90;99.90;;;12.01;73.61;101715.31;5012520;28;20432;-73
2021/11/20 10:04:19;;;;;;;12.43;7.03;;;11.90;99.90;;;12.13;73.17;101708.34;5012758;28;20544;-72
2021/11/20 10:06:51;;;;;;;13.43;6.53;;;11.90;99.90;;;12.03;73.09;101696.97;5012079;28;20499;-73
2021/11/20 10:09:30;;;;;;;11.00;6.23;;;11.90;99.90;;;12.19;73.00;101691.31;5013890;28;20428;-71
2021/11/20 10:12:14;;;;;;;10.87;6.37;;;12.00;99.90;;;12.11;73.14;101689.53;5013470;28;20468;-73
2021/11/20 10:14:49;;;;;;;9.40;6.20;;;12.00;99.90;;;12.20;72.64;101682.94;5013344;28;20425;-72
2021/11/20 10:17:32;;;;;;;11.80;6.77;;;12.00;99.90;;;12.32;72.31;101682.44;5012071;28;20440;-71
2021/11/20 10:20:28;;;;;;;10.47;6.33;;;12.10;99.90;;;12.37;72.80;101682.69;5011806;28;20899;-72
2021/11/20 10:23:04;;;;;;;10.10;6.43;;;12.10;99.90;;;12.44;72.11;101679.00;5012782;28;20444;-73
2021/11/20 10:26:14;;;;;;;10.13;5.50;;;12.20;99.90;;;12.37;71.93;101674.56;5013107;28;20425;-74
2021/11/20 10:29:22;;;;;;;10.13;6.23;;;12.20;99.90;;;12.44;71.74;101678.19;4991656;28;20456;-71
2021/11/20 10:32:08;;;;;;;9.80;5.80;;;12.20;99.90;;;12.47;71.46;101677.78;5012326;28;20436;-72
2021/11/20 10:34:42;;;;;;;11.07;6.33;;;12.30;99.90;;;12.41;71.85;101665.81;5015179;28;20420;-72
2021/11/20 10:37:21;;;;;;;9.17;6.40;;;12.20;99.90;;;12.51;71.55;101666.34;5013009;28;20731;-71
2021/11/20 10:39:54;;;;;;;8.70;5.87;;;12.30;99.90;;;12.70;70.95;101658.53;5012522;28;20435;-73
2021/11/20 10:42:35;;;;;;;11.30;5.80;;;12.40;99.90;;;12.72;70.85;101657.31;5011711;28;20921;-73
2021/11/20 10:45:16;;;;;;;8.47;7.23;;;12.50;99.90;;;12.76;70.59;101649.59;5012625;28;20427;-73
2021/11/20 10:47:56;;;;;;;15.30;7.40;;;12.60;99.90;;;12.86;70.57;101645.50;5011424;28;20416;-72
2021/11/20 10:50:34;;;;;;;12.40;6.80;;;12.60;99.90;;;12.62;70.70;101654.09;5012934;28;20783;-72
2021/11/20 10:53:45;;;;;;;11.43;7.47;;;12.50;99.90;;;12.71;70.79;101635.78;5012925;28;20476;-72